sensor_id;sensor_type;location;lat;lon;timestamp;temperature;humidity
46932;DHT22;32670;51.464;11.964;2023-07-08T00:01:22;25.00;41.90
46932;DHT22;32670;51.464;11.964;2023-07-08T00:03:48;25.00;41.70
46932;DHT22;32670;51.464;11.964;2023-07-08T00:06:26;25.00;41.90
46932;DHT22;32670;51.464;11.964;2023-07-08T00:08:52;25.00;41.80
46932;DHT22;32670;51.464;11.964;2023-07-08T00:11:18;25.00;41.90
46932;DHT22;32670;51.464;11.964;2023-07-08T00:13:44;25.00;42.00
46932;DHT22;32670;51.464;11.964;2023-07-08T00:16:14;25.00;42.00
46932;DHT22;32670;51.464;11.964;2023-07-08T00:18:40;25.00;42.70
46932;DHT22;32670;51.464;11.964;2023-07-08T00:21:13;25.00;42.20
46932;DHT22;32670;51.464;11.964;2023-07-08T00:23:51;25.00;42.20
46932;DHT22;32670;51.464;11.964;2023-07-08T00:26:23;25.00;42.30
46932;DHT22;32670;51.464;11.964;2023-07-08T00:28:50;25.00;42.30
46932;DHT22;32670;51.464;11.964;2023-07-08T00:31:15;25.00;42.40
46932;DHT22;32670;51.464;11.964;2023-07-08T00:33:41;25.00;42.40
46932;DHT22;32670;51.464;11.964;2023-07-08T00:36:14;25.00;42.40
46932;DHT22;32670;51.464;11.964;2023-07-08T00:38:40;25.00;42.50
46932;DHT22;32670;51.464;11.964;2023-07-08T00:41:14;25.00;42.50
46932;DHT22;32670;51.464;11.964;2023-07-08T00:43:47;25.00;42.50
46932;DHT22;32670;51.464;11.964;2023-07-08T00:47:04;25.00;42.60
46932;DHT22;32670;51.464;11.964;2023-07-08T00:51:37;25.00;42.60
46932;DHT22;32670;51.464;11.964;2023-07-08T00:54:14;25.00;42.50
46932;DHT22;32670;51.464;11.964;2023-07-08T00:57:00;25.00;42.40
46932;DHT22;32670;51.464;11.964;2023-07-08T00:59:38;25.00;42.50
46932;DHT22;32670;51.464;11.964;2023-07-08T01:02:07;25.00;42.50
46932;DHT22;32670;51.464;11.964;2023-07-08T01:07:36;24.90;42.50
46932;DHT22;32670;51.464;11.964;2023-07-08T01:10:06;25.00;42.60
46932;DHT22;32670;51.464;11.964;2023-07-08T01:12:38;24.90;42.60
46932;DHT22;32670;51.464;11.964;2023-07-08T01:15:06;24.90;42.50
46932;DHT22;32670;51.464;11.964;2023-07-08T01:17:32;24.90;42.60
46932;DHT22;32670;51.464;11.964;2023-07-08T01:19:59;24.90;42.60
46932;DHT22;32670;51.464;11.964;2023-07-08T01:22:25;24.90;42.60
46932;DHT22;32670;51.464;11.964;2023-07-08T01:24:57;25.00;42.60
46932;DHT22;32670;51.464;11.964;2023-07-08T01:27:29;24.90;42.50
46932;DHT22;32670;51.464;11.964;2023-07-08T01:29:55;24.90;43.20
46932;DHT22;32670;51.464;11.964;2023-07-08T01:32:20;24.80;42.40
46932;DHT22;32670;51.464;11.964;2023-07-08T01:34:46;24.90;42.50
46932;DHT22;32670;51.464;11.964;2023-07-08T01:37:27;24.90;42.60
46932;DHT22;32670;51.464;11.964;2023-07-08T01:39:53;24.80;42.50
46932;DHT22;32670;51.464;11.964;2023-07-08T01:42:18;24.80;42.40
46932;DHT22;32670;51.464;11.964;2023-07-08T01:44:43;24.90;42.50
46932;DHT22;32670;51.464;11.964;2023-07-08T01:47:20;24.80;42.50
46932;DHT22;32670;51.464;11.964;2023-07-08T01:49:48;24.80;42.50
46932;DHT22;32670;51.464;11.964;2023-07-08T01:52:16;24.80;42.50
46932;DHT22;32670;51.464;11.964;2023-07-08T01:54:42;24.80;42.50
46932;DHT22;32670;51.464;11.964;2023-07-08T01:57:08;24.80;42.50
46932;DHT22;32670;51.464;11.964;2023-07-08T01:59:33;24.80;42.50
46932;DHT22;32670;51.464;11.964;2023-07-08T02:01:59;24.80;42.50
46932;DHT22;32670;51.464;11.964;2023-07-08T02:04:25;24.80;43.30
46932;DHT22;32670;51.464;11.964;2023-07-08T02:06:58;24.80;42.70
46932;DHT22;32670;51.464;11.964;2023-07-08T02:09:24;24.80;42.70
46932;DHT22;32670;51.464;11.964;2023-07-08T02:11:52;24.80;42.60
46932;DHT22;32670;51.464;11.964;2023-07-08T02:14:17;24.80;42.60
46932;DHT22;32670;51.464;11.964;2023-07-08T02:16:43;24.80;42.70
46932;DHT22;32670;51.464;11.964;2023-07-08T02:19:09;24.80;42.70
46932;DHT22;32670;51.464;11.964;2023-07-08T02:21:35;24.80;42.70
46932;DHT22;32670;51.464;11.964;2023-07-08T02:24:01;24.70;42.90
46932;DHT22;32670;51.464;11.964;2023-07-08T02:26:26;24.80;43.00
46932;DHT22;32670;51.464;11.964;2023-07-08T02:28:52;24.70;42.80
46932;DHT22;32670;51.464;11.964;2023-07-08T02:31:17;24.80;43.00
46932;DHT22;32670;51.464;11.964;2023-07-08T02:33:43;24.70;42.90
46932;DHT22;32670;51.464;11.964;2023-07-08T02:36:08;24.70;43.00
46932;DHT22;32670;51.464;11.964;2023-07-08T02:38:34;24.80;43.00
46932;DHT22;32670;51.464;11.964;2023-07-08T02:40:59;24.70;43.00
46932;DHT22;32670;51.464;11.964;2023-07-08T02:43:25;24.70;43.00
46932;DHT22;32670;51.464;11.964;2023-07-08T02:45:51;24.70;42.80
46932;DHT22;32670;51.464;11.964;2023-07-08T02:48:18;24.70;42.90
46932;DHT22;32670;51.464;11.964;2023-07-08T02:50:44;24.70;42.90
46932;DHT22;32670;51.464;11.964;2023-07-08T02:53:09;24.70;42.90
46932;DHT22;32670;51.464;11.964;2023-07-08T02:55:35;24.60;42.90
46932;DHT22;32670;51.464;11.964;2023-07-08T02:58:00;24.70;42.90
46932;DHT22;32670;51.464;11.964;2023-07-08T03:00:25;24.70;43.00
46932;DHT22;32670;51.464;11.964;2023-07-08T03:02:51;24.70;43.00
46932;DHT22;32670;51.464;11.964;2023-07-08T03:05:16;24.70;43.00
46932;DHT22;32670;51.464;11.964;2023-07-08T03:07:42;24.70;43.10
46932;DHT22;32670;51.464;11.964;2023-07-08T03:10:08;24.60;43.00
46932;DHT22;32670;51.464;11.964;2023-07-08T03:12:33;24.60;43.10
46932;DHT22;32670;51.464;11.964;2023-07-08T03:14:59;24.60;43.10
46932;DHT22;32670;51.464;11.964;2023-07-08T03:17:24;24.60;43.10
46932;DHT22;32670;51.464;11.964;2023-07-08T03:19:50;24.60;43.00
46932;DHT22;32670;51.464;11.964;2023-07-08T03:22:15;24.60;43.00
46932;DHT22;32670;51.464;11.964;2023-07-08T03:24:42;24.60;43.00
46932;DHT22;32670;51.464;11.964;2023-07-08T03:27:14;24.60;43.00
46932;DHT22;32670;51.464;11.964;2023-07-08T03:29:40;24.60;43.00
46932;DHT22;32670;51.464;11.964;2023-07-08T03:32:09;24.60;43.00
46932;DHT22;32670;51.464;11.964;2023-07-08T03:34:35;24.60;42.90
46932;DHT22;32670;51.464;11.964;2023-07-08T03:37:00;24.60;43.00
46932;DHT22;32670;51.464;11.964;2023-07-08T03:39:26;24.60;43.00
46932;DHT22;32670;51.464;11.964;2023-07-08T03:41:52;24.60;43.20
46932;DHT22;32670;51.464;11.964;2023-07-08T03:44:17;24.60;43.00
46932;DHT22;32670;51.464;11.964;2023-07-08T03:46:44;24.60;43.10
46932;DHT22;32670;51.464;11.964;2023-07-08T03:49:10;24.50;43.00
46932;DHT22;32670;51.464;11.964;2023-07-08T03:51:38;24.50;43.10
46932;DHT22;32670;51.464;11.964;2023-07-08T03:54:05;24.60;43.20
46932;DHT22;32670;51.464;11.964;2023-07-08T03:56:31;24.60;43.20
46932;DHT22;32670;51.464;11.964;2023-07-08T03:58:57;24.60;43.10
46932;DHT22;32670;51.464;11.964;2023-07-08T04:01:24;24.60;43.10
46932;DHT22;32670;51.464;11.964;2023-07-08T04:03:54;24.60;43.10
46932;DHT22;32670;51.464;11.964;2023-07-08T04:06:20;24.60;43.20
46932;DHT22;32670;51.464;11.964;2023-07-08T04:08:46;24.60;43.20
46932;DHT22;32670;51.464;11.964;2023-07-08T04:11:21;24.60;43.30
46932;DHT22;32670;51.464;11.964;2023-07-08T04:13:47;24.60;43.30
46932;DHT22;32670;51.464;11.964;2023-07-08T04:16:22;24.60;43.20
46932;DHT22;32670;51.464;11.964;2023-07-08T04:18:48;24.60;43.30
46932;DHT22;32670;51.464;11.964;2023-07-08T04:21:16;24.50;43.50
46932;DHT22;32670;51.464;11.964;2023-07-08T04:23:43;24.60;43.60
46932;DHT22;32670;51.464;11.964;2023-07-08T04:26:09;24.60;43.70
46932;DHT22;32670;51.464;11.964;2023-07-08T04:28:35;24.60;43.80
46932;DHT22;32670;51.464;11.964;2023-07-08T04:31:00;24.60;43.80
46932;DHT22;32670;51.464;11.964;2023-07-08T04:33:26;24.60;43.90
46932;DHT22;32670;51.464;11.964;2023-07-08T04:35:52;24.70;43.90
46932;DHT22;32670;51.464;11.964;2023-07-08T04:38:22;24.70;43.90
46932;DHT22;32670;51.464;11.964;2023-07-08T04:40:49;24.70;44.00
46932;DHT22;32670;51.464;11.964;2023-07-08T04:43:16;24.70;44.00
46932;DHT22;32670;51.464;11.964;2023-07-08T04:45:45;24.70;44.10
46932;DHT22;32670;51.464;11.964;2023-07-08T04:48:14;24.70;44.10
46932;DHT22;32670;51.464;11.964;2023-07-08T04:50:48;24.80;44.30
46932;DHT22;32670;51.464;11.964;2023-07-08T04:53:14;24.70;44.20
46932;DHT22;32670;51.464;11.964;2023-07-08T04:55:52;24.70;44.30
46932;DHT22;32670;51.464;11.964;2023-07-08T04:58:19;24.80;44.30
46932;DHT22;32670;51.464;11.964;2023-07-08T05:00:44;24.80;44.30
46932;DHT22;32670;51.464;11.964;2023-07-08T05:03:09;24.80;44.40
46932;DHT22;32670;51.464;11.964;2023-07-08T05:05:35;24.80;44.40
46932;DHT22;32670;51.464;11.964;2023-07-08T05:08:00;24.80;44.70
46932;DHT22;32670;51.464;11.964;2023-07-08T05:10:26;24.80;44.60
46932;DHT22;32670;51.464;11.964;2023-07-08T05:12:52;24.80;44.70
46932;DHT22;32670;51.464;11.964;2023-07-08T05:15:17;24.80;44.70
46932;DHT22;32670;51.464;11.964;2023-07-08T05:17:43;24.80;44.80
46932;DHT22;32670;51.464;11.964;2023-07-08T05:20:11;24.80;44.80
46932;DHT22;32670;51.464;11.964;2023-07-08T05:22:38;24.90;44.90
46932;DHT22;32670;51.464;11.964;2023-07-08T05:25:04;24.80;44.90
46932;DHT22;32670;51.464;11.964;2023-07-08T05:27:30;24.90;44.90
46932;DHT22;32670;51.464;11.964;2023-07-08T05:29:56;24.90;44.90
46932;DHT22;32670;51.464;11.964;2023-07-08T05:32:21;24.90;45.00
46932;DHT22;32670;51.464;11.964;2023-07-08T05:34:47;24.90;45.00
46932;DHT22;32670;51.464;11.964;2023-07-08T05:37:13;24.90;45.00
46932;DHT22;32670;51.464;11.964;2023-07-08T05:39:39;24.90;45.60
46932;DHT22;32670;51.464;11.964;2023-07-08T05:42:05;24.90;45.00
46932;DHT22;32670;51.464;11.964;2023-07-08T05:44:31;25.00;45.10
46932;DHT22;32670;51.464;11.964;2023-07-08T05:46:56;24.90;45.10
46932;DHT22;32670;51.464;11.964;2023-07-08T05:49:21;24.90;45.20
46932;DHT22;32670;51.464;11.964;2023-07-08T05:51:47;25.00;45.20
46932;DHT22;32670;51.464;11.964;2023-07-08T05:54:13;24.90;45.30
46932;DHT22;32670;51.464;11.964;2023-07-08T05:56:39;25.00;45.30
46932;DHT22;32670;51.464;11.964;2023-07-08T05:59:04;25.00;45.50
46932;DHT22;32670;51.464;11.964;2023-07-08T06:01:30;25.00;45.60
46932;DHT22;32670;51.464;11.964;2023-07-08T06:03:56;25.10;46.10
46932;DHT22;32670;51.464;11.964;2023-07-08T06:06:26;25.10;45.70
46932;DHT22;32670;51.464;11.964;2023-07-08T06:08:52;25.20;45.60
46932;DHT22;32670;51.464;11.964;2023-07-08T06:11:18;25.20;44.60
46932;DHT22;32670;51.464;11.964;2023-07-08T06:13:44;25.10;44.10
46932;DHT22;32670;51.464;11.964;2023-07-08T06:16:10;25.20;43.90
46932;DHT22;32670;51.464;11.964;2023-07-08T06:18:35;25.10;43.70
46932;DHT22;32670;51.464;11.964;2023-07-08T06:21:01;25.10;43.60
46932;DHT22;32670;51.464;11.964;2023-07-08T06:23:28;25.10;43.50
46932;DHT22;32670;51.464;11.964;2023-07-08T06:25:53;25.10;43.60
46932;DHT22;32670;51.464;11.964;2023-07-08T06:28:19;25.10;43.40
46932;DHT22;32670;51.464;11.964;2023-07-08T06:30:45;25.00;43.30
46932;DHT22;32670;51.464;11.964;2023-07-08T06:33:11;25.00;43.40
46932;DHT22;32670;51.464;11.964;2023-07-08T06:35:37;25.00;43.50
46932;DHT22;32670;51.464;11.964;2023-07-08T06:38:03;25.00;43.60
46932;DHT22;32670;51.464;11.964;2023-07-08T06:40:28;25.00;43.70
46932;DHT22;32670;51.464;11.964;2023-07-08T06:42:54;25.00;43.80
46932;DHT22;32670;51.464;11.964;2023-07-08T06:45:19;25.00;43.90
46932;DHT22;32670;51.464;11.964;2023-07-08T06:47:45;25.00;43.90
46932;DHT22;32670;51.464;11.964;2023-07-08T06:50:11;25.00;44.10
46932;DHT22;32670;51.464;11.964;2023-07-08T06:52:37;25.00;44.30
46932;DHT22;32670;51.464;11.964;2023-07-08T06:55:05;25.00;44.40
46932;DHT22;32670;51.464;11.964;2023-07-08T06:57:32;25.00;44.40
46932;DHT22;32670;51.464;11.964;2023-07-08T06:59:58;25.00;44.30
46932;DHT22;32670;51.464;11.964;2023-07-08T07:02:24;25.10;44.30
46932;DHT22;32670;51.464;11.964;2023-07-08T07:04:49;25.10;44.20
46932;DHT22;32670;51.464;11.964;2023-07-08T07:07:15;25.10;44.30
46932;DHT22;32670;51.464;11.964;2023-07-08T07:09:40;25.10;44.20
46932;DHT22;32670;51.464;11.964;2023-07-08T07:12:06;25.10;44.20
46932;DHT22;32670;51.464;11.964;2023-07-08T07:14:32;25.10;44.20
46932;DHT22;32670;51.464;11.964;2023-07-08T07:16:57;25.10;44.50
46932;DHT22;32670;51.464;11.964;2023-07-08T07:19:23;25.10;44.50
46932;DHT22;32670;51.464;11.964;2023-07-08T07:21:48;25.10;44.90
46932;DHT22;32670;51.464;11.964;2023-07-08T07:24:15;25.20;44.90
46932;DHT22;32670;51.464;11.964;2023-07-08T07:26:41;25.10;44.80
46932;DHT22;32670;51.464;11.964;2023-07-08T07:29:06;25.20;44.60
46932;DHT22;32670;51.464;11.964;2023-07-08T07:31:32;25.20;44.60
46932;DHT22;32670;51.464;11.964;2023-07-08T07:34:00;25.20;44.60
46932;DHT22;32670;51.464;11.964;2023-07-08T07:36:27;25.20;44.60
46932;DHT22;32670;51.464;11.964;2023-07-08T07:38:54;25.20;44.60
46932;DHT22;32670;51.464;11.964;2023-07-08T07:41:19;25.20;44.60
46932;DHT22;32670;51.464;11.964;2023-07-08T07:43:44;25.20;44.60
46932;DHT22;32670;51.464;11.964;2023-07-08T07:46:10;25.20;44.60
46932;DHT22;32670;51.464;11.964;2023-07-08T07:48:36;25.20;44.60
46932;DHT22;32670;51.464;11.964;2023-07-08T07:51:02;25.20;44.60
46932;DHT22;32670;51.464;11.964;2023-07-08T07:53:28;25.20;44.60
46932;DHT22;32670;51.464;11.964;2023-07-08T07:55:58;25.20;44.60
46932;DHT22;32670;51.464;11.964;2023-07-08T07:58:23;25.20;44.60
46932;DHT22;32670;51.464;11.964;2023-07-08T08:00:49;25.20;44.60
46932;DHT22;32670;51.464;11.964;2023-07-08T08:03:15;25.20;44.60
46932;DHT22;32670;51.464;11.964;2023-07-08T08:05:42;25.20;44.60
46932;DHT22;32670;51.464;11.964;2023-07-08T08:08:07;25.20;44.60
46932;DHT22;32670;51.464;11.964;2023-07-08T08:10:32;25.20;44.60
46932;DHT22;32670;51.464;11.964;2023-07-08T08:12:59;25.20;44.60
46932;DHT22;32670;51.464;11.964;2023-07-08T08:15:24;25.30;44.60
46932;DHT22;32670;51.464;11.964;2023-07-08T08:17:50;25.20;44.60
46932;DHT22;32670;51.464;11.964;2023-07-08T08:20:18;25.20;44.60
46932;DHT22;32670;51.464;11.964;2023-07-08T08:22:44;25.20;44.60
46932;DHT22;32670;51.464;11.964;2023-07-08T08:25:09;25.20;44.60
46932;DHT22;32670;51.464;11.964;2023-07-08T08:27:35;25.20;44.60
46932;DHT22;32670;51.464;11.964;2023-07-08T08:30:01;25.20;44.80
46932;DHT22;32670;51.464;11.964;2023-07-08T08:32:26;25.20;44.80
46932;DHT22;32670;51.464;11.964;2023-07-08T08:34:52;25.20;44.80
46932;DHT22;32670;51.464;11.964;2023-07-08T08:37:17;25.20;44.70
46932;DHT22;32670;51.464;11.964;2023-07-08T08:39:43;25.20;44.60
46932;DHT22;32670;51.464;11.964;2023-07-08T08:45:11;25.20;44.60
46932;DHT22;32670;51.464;11.964;2023-07-08T08:47:40;25.20;44.60
46932;DHT22;32670;51.464;11.964;2023-07-08T08:52:53;25.20;44.60
46932;DHT22;32670;51.464;11.964;2023-07-08T08:55:21;25.20;44.60
46932;DHT22;32670;51.464;11.964;2023-07-08T08:58:13;25.20;44.60
46932;DHT22;32670;51.464;11.964;2023-07-08T09:00:59;25.30;44.60
46932;DHT22;32670;51.464;11.964;2023-07-08T09:06:25;25.30;45.00
46932;DHT22;32670;51.464;11.964;2023-07-08T09:08:51;25.20;44.90
46932;DHT22;32670;51.464;11.964;2023-07-08T09:12:10;25.30;44.90
46932;DHT22;32670;51.464;11.964;2023-07-08T09:14:29;25.30;44.80
46932;DHT22;32670;51.464;11.964;2023-07-08T09:17:22;25.30;44.80
46932;DHT22;32670;51.464;11.964;2023-07-08T09:19:58;25.30;44.80
46932;DHT22;32670;51.464;11.964;2023-07-08T09:22:38;25.30;44.80
46932;DHT22;32670;51.464;11.964;2023-07-08T09:27:47;25.30;44.80
46932;DHT22;32670;51.464;11.964;2023-07-08T09:30:19;25.30;45.20
46932;DHT22;32670;51.464;11.964;2023-07-08T09:32:46;25.30;45.00
46932;DHT22;32670;51.464;11.964;2023-07-08T09:35:22;25.30;45.00
46932;DHT22;32670;51.464;11.964;2023-07-08T09:37:48;25.30;45.00
46932;DHT22;32670;51.464;11.964;2023-07-08T09:40:28;25.30;44.90
46932;DHT22;32670;51.464;11.964;2023-07-08T09:42:59;25.30;44.90
46932;DHT22;32670;51.464;11.964;2023-07-08T09:45:27;25.30;44.90
46932;DHT22;32670;51.464;11.964;2023-07-08T09:47:57;25.30;44.90
46932;DHT22;32670;51.464;11.964;2023-07-08T09:50:27;25.30;45.10
46932;DHT22;32670;51.464;11.964;2023-07-08T09:52:56;25.30;45.10
46932;DHT22;32670;51.464;11.964;2023-07-08T09:55:30;25.30;45.10
46932;DHT22;32670;51.464;11.964;2023-07-08T09:57:56;25.30;45.00
46932;DHT22;32670;51.464;11.964;2023-07-08T10:00:29;25.30;45.00
46932;DHT22;32670;51.464;11.964;2023-07-08T10:03:03;25.30;45.00
46932;DHT22;32670;51.464;11.964;2023-07-08T10:05:35;25.30;44.90
46932;DHT22;32670;51.464;11.964;2023-07-08T10:08:14;25.30;44.90
46932;DHT22;32670;51.464;11.964;2023-07-08T10:10:40;25.30;44.90
46932;DHT22;32670;51.464;11.964;2023-07-08T10:13:23;25.30;44.90
46932;DHT22;32670;51.464;11.964;2023-07-08T10:15:56;25.30;44.90
46932;DHT22;32670;51.464;11.964;2023-07-08T10:18:28;25.30;44.90
46932;DHT22;32670;51.464;11.964;2023-07-08T10:26:37;25.30;44.90
46932;DHT22;32670;51.464;11.964;2023-07-08T10:31:46;25.30;44.90
46932;DHT22;32670;51.464;11.964;2023-07-08T10:34:39;25.30;44.90
46932;DHT22;32670;51.464;11.964;2023-07-08T10:39:57;25.30;44.90
46932;DHT22;32670;51.464;11.964;2023-07-08T10:42:47;25.30;44.90
46932;DHT22;32670;51.464;11.964;2023-07-08T10:45:26;25.40;44.90
46932;DHT22;32670;51.464;11.964;2023-07-08T10:48:29;25.40;45.00
46932;DHT22;32670;51.464;11.964;2023-07-08T10:51:18;25.30;44.80
46932;DHT22;32670;51.464;11.964;2023-07-08T10:59:45;25.40;44.90
46932;DHT22;32670;51.464;11.964;2023-07-08T11:02:38;25.40;44.90
46932;DHT22;32670;51.464;11.964;2023-07-08T11:08:17;25.40;44.90
46932;DHT22;32670;51.464;11.964;2023-07-08T11:11:00;25.40;44.90
46932;DHT22;32670;51.464;11.964;2023-07-08T11:13:28;25.40;45.00
46932;DHT22;32670;51.464;11.964;2023-07-08T11:16:13;25.40;44.90
46932;DHT22;32670;51.464;11.964;2023-07-08T11:18:50;25.40;44.90
46932;DHT22;32670;51.464;11.964;2023-07-08T11:21:26;25.40;45.50
46932;DHT22;32670;51.464;11.964;2023-07-08T11:24:13;25.40;44.90
46932;DHT22;32670;51.464;11.964;2023-07-08T11:26:50;25.40;44.90
46932;DHT22;32670;51.464;11.964;2023-07-08T11:29:20;25.40;44.90
46932;DHT22;32670;51.464;11.964;2023-07-08T11:31:47;25.40;45.00
46932;DHT22;32670;51.464;11.964;2023-07-08T11:34:15;25.40;44.90
46932;DHT22;32670;51.464;11.964;2023-07-08T11:36:42;25.40;44.90
46932;DHT22;32670;51.464;11.964;2023-07-08T11:40:00;25.40;44.90
46932;DHT22;32670;51.464;11.964;2023-07-08T11:44:52;25.50;45.00
46932;DHT22;32670;51.464;11.964;2023-07-08T11:47:37;25.40;44.90
46932;DHT22;32670;51.464;11.964;2023-07-08T11:50:12;25.50;45.00
46932;DHT22;32670;51.464;11.964;2023-07-08T11:52:54;25.40;44.90
46932;DHT22;32670;51.464;11.964;2023-07-08T11:58:07;25.50;45.00
46932;DHT22;32670;51.464;11.964;2023-07-08T12:00:33;25.40;44.90
46932;DHT22;32670;51.464;11.964;2023-07-08T12:03:18;25.50;45.00
46932;DHT22;32670;51.464;11.964;2023-07-08T12:05:44;25.50;45.00
46932;DHT22;32670;51.464;11.964;2023-07-08T12:08:14;25.40;44.90
46932;DHT22;32670;51.464;11.964;2023-07-08T12:10:47;25.50;45.00
46932;DHT22;32670;51.464;11.964;2023-07-08T12:13:17;25.50;45.00
46932;DHT22;32670;51.464;11.964;2023-07-08T12:15:43;25.50;45.00
46932;DHT22;32670;51.464;11.964;2023-07-08T12:18:21;25.50;45.10
46932;DHT22;32670;51.464;11.964;2023-07-08T12:20:56;25.50;45.10
46932;DHT22;32670;51.464;11.964;2023-07-08T12:23:23;25.50;45.10
46932;DHT22;32670;51.464;11.964;2023-07-08T12:25:50;25.50;45.10
46932;DHT22;32670;51.464;11.964;2023-07-08T12:28:17;25.50;45.10
46932;DHT22;32670;51.464;11.964;2023-07-08T12:30:44;25.50;45.00
46932;DHT22;32670;51.464;11.964;2023-07-08T12:33:28;25.50;45.10
46932;DHT22;32670;51.464;11.964;2023-07-08T12:35:55;25.50;45.10
46932;DHT22;32670;51.464;11.964;2023-07-08T12:38:28;25.50;45.00
46932;DHT22;32670;51.464;11.964;2023-07-08T12:40:56;25.50;45.10
46932;DHT22;32670;51.464;11.964;2023-07-08T12:43:22;25.50;45.10
46932;DHT22;32670;51.464;11.964;2023-07-08T12:45:48;25.50;45.10
46932;DHT22;32670;51.464;11.964;2023-07-08T12:48:13;25.50;45.40
46932;DHT22;32670;51.464;11.964;2023-07-08T12:50:38;25.50;45.40
46932;DHT22;32670;51.464;11.964;2023-07-08T12:53:05;25.50;45.40
46932;DHT22;32670;51.464;11.964;2023-07-08T12:55:36;25.50;45.30
46932;DHT22;32670;51.464;11.964;2023-07-08T12:58:03;25.50;45.30
46932;DHT22;32670;51.464;11.964;2023-07-08T13:00:31;25.50;45.30
46932;DHT22;32670;51.464;11.964;2023-07-08T13:03:24;25.50;45.20
46932;DHT22;32670;51.464;11.964;2023-07-08T13:05:52;25.50;45.20
46932;DHT22;32670;51.464;11.964;2023-07-08T13:08:22;25.50;45.20
46932;DHT22;32670;51.464;11.964;2023-07-08T13:10:52;25.50;45.20
46932;DHT22;32670;51.464;11.964;2023-07-08T13:13:23;25.50;45.20
46932;DHT22;32670;51.464;11.964;2023-07-08T13:15:50;25.50;45.20
46932;DHT22;32670;51.464;11.964;2023-07-08T13:18:18;25.60;45.30
46932;DHT22;32670;51.464;11.964;2023-07-08T13:20:51;25.50;45.10
46932;DHT22;32670;51.464;11.964;2023-07-08T13:23:17;25.50;45.10
46932;DHT22;32670;51.464;11.964;2023-07-08T13:25:43;25.50;45.10
46932;DHT22;32670;51.464;11.964;2023-07-08T13:28:29;25.50;45.10
46932;DHT22;32670;51.464;11.964;2023-07-08T13:31:23;25.50;45.20
46932;DHT22;32670;51.464;11.964;2023-07-08T13:33:54;25.50;45.10
46932;DHT22;32670;51.464;11.964;2023-07-08T13:36:24;25.60;45.20
46932;DHT22;32670;51.464;11.964;2023-07-08T13:38:53;25.60;45.30
46932;DHT22;32670;51.464;11.964;2023-07-08T13:41:21;25.50;45.10
46932;DHT22;32670;51.464;11.964;2023-07-08T13:43:48;25.60;45.20
46932;DHT22;32670;51.464;11.964;2023-07-08T13:46:50;25.50;45.10
46932;DHT22;32670;51.464;11.964;2023-07-08T13:49:40;25.50;45.10
46932;DHT22;32670;51.464;11.964;2023-07-08T13:52:14;25.50;45.10
46932;DHT22;32670;51.464;11.964;2023-07-08T13:54:50;25.50;45.10
46932;DHT22;32670;51.464;11.964;2023-07-08T13:57:19;25.50;45.10
46932;DHT22;32670;51.464;11.964;2023-07-08T13:59:46;25.60;45.20
46932;DHT22;32670;51.464;11.964;2023-07-08T14:02:17;25.50;45.10
46932;DHT22;32670;51.464;11.964;2023-07-08T14:04:43;25.60;45.20
46932;DHT22;32670;51.464;11.964;2023-07-08T14:07:17;25.60;45.20
46932;DHT22;32670;51.464;11.964;2023-07-08T14:09:43;25.60;45.20
46932;DHT22;32670;51.464;11.964;2023-07-08T14:12:09;25.60;45.20
46932;DHT22;32670;51.464;11.964;2023-07-08T14:14:34;25.60;45.30
46932;DHT22;32670;51.464;11.964;2023-07-08T14:17:00;25.60;45.20
46932;DHT22;32670;51.464;11.964;2023-07-08T14:19:30;25.60;45.20
46932;DHT22;32670;51.464;11.964;2023-07-08T14:22:00;25.60;45.20
46932;DHT22;32670;51.464;11.964;2023-07-08T14:24:26;25.60;45.20
46932;DHT22;32670;51.464;11.964;2023-07-08T14:26:52;25.60;45.30
46932;DHT22;32670;51.464;11.964;2023-07-08T14:29:18;25.60;45.90
46932;DHT22;32670;51.464;11.964;2023-07-08T14:31:43;25.60;45.30
46932;DHT22;32670;51.464;11.964;2023-07-08T14:34:12;25.60;45.30
46932;DHT22;32670;51.464;11.964;2023-07-08T14:36:38;25.60;45.90
46932;DHT22;32670;51.464;11.964;2023-07-08T14:39:14;25.60;45.30
46932;DHT22;32670;51.464;11.964;2023-07-08T14:41:41;25.60;45.30
46932;DHT22;32670;51.464;11.964;2023-07-08T14:44:24;25.60;45.30
46932;DHT22;32670;51.464;11.964;2023-07-08T14:46:50;25.60;45.30
46932;DHT22;32670;51.464;11.964;2023-07-08T14:49:18;25.60;45.30
46932;DHT22;32670;51.464;11.964;2023-07-08T14:51:44;25.60;45.30
46932;DHT22;32670;51.464;11.964;2023-07-08T14:54:09;25.60;45.30
46932;DHT22;32670;51.464;11.964;2023-07-08T14:56:35;25.60;45.30
46932;DHT22;32670;51.464;11.964;2023-07-08T14:59:00;25.70;45.40
46932;DHT22;32670;51.464;11.964;2023-07-08T15:01:26;25.60;45.30
46932;DHT22;32670;51.464;11.964;2023-07-08T15:03:55;25.60;45.30
46932;DHT22;32670;51.464;11.964;2023-07-08T15:06:21;25.60;45.40
46932;DHT22;32670;51.464;11.964;2023-07-08T15:08:47;25.60;45.30
46932;DHT22;32670;51.464;11.964;2023-07-08T15:11:13;25.60;45.30
46932;DHT22;32670;51.464;11.964;2023-07-08T15:13:39;25.60;45.30
46932;DHT22;32670;51.464;11.964;2023-07-08T15:16:08;25.60;45.30
46932;DHT22;32670;51.464;11.964;2023-07-08T15:18:36;25.60;45.30
46932;DHT22;32670;51.464;11.964;2023-07-08T15:21:01;25.70;45.40
46932;DHT22;32670;51.464;11.964;2023-07-08T15:23:26;25.60;45.30
46932;DHT22;32670;51.464;11.964;2023-07-08T15:25:52;25.70;45.40
46932;DHT22;32670;51.464;11.964;2023-07-08T15:28:36;25.70;45.40
46932;DHT22;32670;51.464;11.964;2023-07-08T15:31:04;25.60;45.30
46932;DHT22;32670;51.464;11.964;2023-07-08T15:33:30;25.70;45.40
46932;DHT22;32670;51.464;11.964;2023-07-08T15:35:55;25.70;45.40
46932;DHT22;32670;51.464;11.964;2023-07-08T15:38:21;25.70;45.40
46932;DHT22;32670;51.464;11.964;2023-07-08T15:40:46;25.70;45.40
46932;DHT22;32670;51.464;11.964;2023-07-08T15:43:13;25.70;45.40
46932;DHT22;32670;51.464;11.964;2023-07-08T15:45:39;25.70;45.40
46932;DHT22;32670;51.464;11.964;2023-07-08T15:48:15;25.70;45.40
46932;DHT22;32670;51.464;11.964;2023-07-08T15:50:41;25.70;45.40
46932;DHT22;32670;51.464;11.964;2023-07-08T15:53:07;25.70;45.40
46932;DHT22;32670;51.464;11.964;2023-07-08T15:55:37;25.70;45.40
46932;DHT22;32670;51.464;11.964;2023-07-08T15:58:06;25.70;45.40
46932;DHT22;32670;51.464;11.964;2023-07-08T16:00:37;25.70;45.40
46932;DHT22;32670;51.464;11.964;2023-07-08T16:03:09;25.70;45.40
46932;DHT22;32670;51.464;11.964;2023-07-08T16:05:36;25.70;45.40
46932;DHT22;32670;51.464;11.964;2023-07-08T16:08:02;25.70;45.40
46932;DHT22;32670;51.464;11.964;2023-07-08T16:10:31;25.70;45.40